Time;durP1;ratioP1;P1;durP2;ratioP2;P2;SDS_P1;SDS_P2;PMS_P1;PMS_P2;Temp;Humidity;BMP_temperature;BMP_pressure;BME280_temperature;BME280_humidity;BME280_pressure;Samples;Min_cycle;Max_cycle;Signal;HPM_P1;HPM_P2
2023/02/14 00:00:32;;;;;;;71.20;38.10;;;;;;;;;;769232;182;919252;-74
2023/02/14 00:02:57;;;;;;;59.00;36.67;;;;;;;;;;762520;183;919063;-74
2023/02/14 00:05:23;;;;;;;59.40;37.97;;;;;;;;;;763062;183;919522;-74
2023/02/14 00:07:49;;;;;;;69.82;38.15;;;;;;;;;;767725;183;919529;-73
2023/02/14 00:10:15;;;;;;;68.13;38.63;;;;;;;;;;760603;183;919597;-73
2023/02/14 00:12:41;;;;;;;68.93;38.70;;;;;;;;;;759544;182;919962;-73
2023/02/14 00:17:39;;;;;;;54.60;34.43;;;;;;;;;;756373;184;920524;-74
2023/02/14 00:20:06;;;;;;;60.10;35.80;;;;;;;;;;749989;184;915537;-74
2023/02/14 00:22:32;;;;;;;66.80;39.10;;;;;;;;;;749649;184;916198;-73
2023/02/14 00:24:58;;;;;;;68.40;37.63;;;;;;;;;;756395;184;965196;-72
2023/02/14 00:27:24;;;;;;;66.07;40.73;;;;;;;;;;756107;183;918390;-73
2023/02/14 00:29:49;;;;;;;75.70;41.47;;;;;;;;;;761534;183;920075;-74
2023/02/14 00:32:15;;;;;;;68.07;37.65;;;;;;;;;;762367;183;919402;-73
2023/02/14 00:34:41;;;;;;;63.93;34.30;;;;;;;;;;771594;180;919022;-73
2023/02/14 00:37:07;;;;;;;64.00;34.70;;;;;;;;;;766912;180;920013;-73
2023/02/14 00:39:33;;;;;;;61.50;33.00;;;;;;;;;;754384;183;921036;-75
2023/02/14 00:41:59;;;;;;;66.10;39.57;;;;;;;;;;755982;185;917072;-73
2023/02/14 00:44:25;;;;;;;73.87;42.30;;;;;;;;;;755167;185;919611;-73
2023/02/14 00:46:51;;;;;;;66.73;37.50;;;;;;;;;;755437;184;919527;-73
2023/02/14 00:49:16;;;;;;;64.60;36.40;;;;;;;;;;760468;183;1025202;-74
2023/02/14 00:51:42;;;;;;;70.67;39.63;;;;;;;;;;760600;183;919411;-74
2023/02/14 00:54:08;;;;;;;81.20;40.90;;;;;;;;;;760055;183;919852;-73
2023/02/14 00:56:34;;;;;;;75.73;40.57;;;;;;;;;;751450;187;1022468;-73
2023/02/14 00:59:00;;;;;;;63.80;37.20;;;;;;;;;;773542;182;918862;-73
2023/02/14 01:01:26;;;;;;;68.07;37.27;;;;;;;;;;758287;183;920260;-75
2023/02/14 01:03:51;;;;;;;66.37;35.90;;;;;;;;;;750781;181;919766;-73
2023/02/14 01:06:17;;;;;;;70.50;36.83;;;;;;;;;;770364;183;848606;-75
2023/02/14 01:08:43;;;;;;;67.60;39.72;;;;;;;;;;753947;183;920731;-73
2023/02/14 01:11:10;;;;;;;75.53;42.57;;;;;;;;;;760342;183;915944;-74
2023/02/14 01:13:36;;;;;;;79.37;41.97;;;;;;;;;;765909;183;913457;-74
2023/02/14 01:16:01;;;;;;;78.87;40.40;;;;;;;;;;761634;183;915726;-74
2023/02/14 01:18:27;;;;;;;85.87;45.40;;;;;;;;;;765713;183;915321;-73
2023/02/14 01:20:53;;;;;;;73.55;40.33;;;;;;;;;;757757;183;919734;-73
2023/02/14 01:23:19;;;;;;;263.93;115.23;;;;;;;;;;765120;182;918890;-74
2023/02/14 01:25:45;;;;;;;187.23;84.93;;;;;;;;;;749768;184;919419;-74
2023/02/14 01:28:11;;;;;;;69.90;40.03;;;;;;;;;;755802;184;918872;-73
2023/02/14 01:30:36;;;;;;;69.87;37.37;;;;;;;;;;758068;185;917044;-73
2023/02/14 01:33:02;;;;;;;73.33;38.73;;;;;;;;;;750645;183;918874;-75
2023/02/14 01:35:28;;;;;;;72.07;37.97;;;;;;;;;;758231;184;918447;-75
2023/02/14 01:37:54;;;;;;;63.43;35.77;;;;;;;;;;764981;183;1023713;-73
2023/02/14 01:40:20;;;;;;;58.03;32.73;;;;;;;;;;761892;183;919019;-73
2023/02/14 01:42:46;;;;;;;60.27;33.00;;;;;;;;;;760803;183;918780;-73
2023/02/14 01:45:17;;;;;;;64.70;36.03;;;;;;;;;;752516;181;918961;-73
2023/02/14 01:47:43;;;;;;;70.07;35.90;;;;;;;;;;765762;182;914556;-74
2023/02/14 01:50:24;;;;;;;71.80;38.80;;;;;;;;;;761697;183;922440;-73
2023/02/14 01:52:50;;;;;;;57.50;32.73;;;;;;;;;;764402;183;918838;-74
2023/02/14 01:55:16;;;;;;;64.37;34.47;;;;;;;;;;764639;183;919943;-74
2023/02/14 01:57:43;;;;;;;63.07;36.70;;;;;;;;;;766618;183;917788;-74
2023/02/14 02:02:41;;;;;;;67.27;35.17;;;;;;;;;;755397;183;814911;-75
2023/02/14 02:05:07;;;;;;;60.22;35.03;;;;;;;;;;757797;183;976691;-74
2023/02/14 02:07:33;;;;;;;64.87;35.40;;;;;;;;;;763229;183;919375;-75
2023/02/14 02:09:58;;;;;;;63.17;34.00;;;;;;;;;;762668;183;919422;-74
2023/02/14 02:12:24;;;;;;;72.93;35.40;;;;;;;;;;761160;183;920143;-74
2023/02/14 02:14:50;;;;;;;75.97;36.80;;;;;;;;;;769698;183;910819;-75
2023/02/14 02:17:16;;;;;;;73.83;38.27;;;;;;;;;;765680;182;978987;-76
2023/02/14 02:19:48;;;;;;;61.45;33.97;;;;;;;;;;759010;183;919921;-74
2023/02/14 02:22:22;;;;;;;72.53;40.00;;;;;;;;;;757418;183;917865;-74
2023/02/14 02:24:54;;;;;;;73.37;40.10;;;;;;;;;;758992;184;918104;-75
2023/02/14 02:27:25;;;;;;;66.50;35.23;;;;;;;;;;767606;183;921439;-75
2023/02/14 02:29:55;;;;;;;76.73;39.80;;;;;;;;;;760659;183;920665;-74
2023/02/14 02:32:21;;;;;;;86.17;43.10;;;;;;;;;;757757;184;917732;-76
2023/02/14 02:34:54;;;;;;;73.20;43.60;;;;;;;;;;748920;184;932095;-75
2023/02/14 02:37:22;;;;;;;60.73;36.97;;;;;;;;;;756994;186;920005;-77
2023/02/14 02:39:53;;;;;;;65.35;36.30;;;;;;;;;;748256;187;1020527;-75
2023/02/14 02:42:23;;;;;;;75.50;39.03;;;;;;;;;;749742;184;916183;-75
2023/02/14 02:44:50;;;;;;;80.10;40.53;;;;;;;;;;750587;187;919638;-74
2023/02/14 02:47:20;;;;;;;74.80;41.50;;;;;;;;;;756423;184;917273;-75
2023/02/14 02:54:54;;;;;;;79.28;43.40;;;;;;;;;;743419;186;920161;-76
2023/02/14 02:57:22;;;;;;;72.17;41.70;;;;;;;;;;752213;186;815711;-74
2023/02/14 02:59:48;;;;;;;76.20;41.70;;;;;;;;;;753080;185;913250;-75
2023/02/14 03:02:14;;;;;;;73.70;40.90;;;;;;;;;;751067;183;922267;-75
2023/02/14 03:09:47;;;;;;;71.50;37.43;;;;;;;;;;761415;184;1022354;-75
2023/02/14 03:12:28;;;;;;;65.60;36.20;;;;;;;;;;750619;185;919453;-75
2023/02/14 03:14:54;;;;;;;57.20;36.27;;;;;;;;;;745591;186;920815;-75
2023/02/14 03:17:34;;;;;;;63.23;35.87;;;;;;;;;;749212;184;919504;-76
2023/02/14 03:20:15;;;;;;;58.63;32.87;;;;;;;;;;762497;183;919770;-75
2023/02/14 03:22:43;;;;;;;63.20;35.63;;;;;;;;;;760872;183;916757;-75
2023/02/14 03:25:09;;;;;;;64.67;37.30;;;;;;;;;;760644;183;814444;-74
2023/02/14 03:27:35;;;;;;;68.37;37.93;;;;;;;;;;751391;183;916124;-75
2023/02/14 03:30:02;;;;;;;68.50;36.47;;;;;;;;;;754183;184;919279;-75
2023/02/14 03:32:30;;;;;;;60.35;35.50;;;;;;;;;;760395;180;913687;-74
2023/02/14 03:34:59;;;;;;;61.13;34.07;;;;;;;;;;766217;183;919282;-75
2023/02/14 03:37:28;;;;;;;62.87;33.30;;;;;;;;;;765045;183;816078;-76
2023/02/14 03:39:55;;;;;;;63.70;34.33;;;;;;;;;;760996;183;920031;-76
2023/02/14 03:42:21;;;;;;;65.90;34.07;;;;;;;;;;769077;179;905564;-76
2023/02/14 03:44:46;;;;;;;68.90;33.63;;;;;;;;;;764231;183;816430;-75
2023/02/14 03:47:12;;;;;;;70.97;34.97;;;;;;;;;;762095;183;917780;-75
2023/02/14 03:49:38;;;;;;;71.17;36.70;;;;;;;;;;753553;183;1018400;-74
2023/02/14 03:52:04;;;;;;;70.45;40.85;;;;;;;;;;758662;182;917928;-75
2023/02/14 03:54:31;;;;;;;65.90;36.63;;;;;;;;;;752546;184;923175;-76
2023/02/14 03:56:56;;;;;;;65.30;35.40;;;;;;;;;;754303;181;916805;-76
2023/02/14 03:59:22;;;;;;;62.40;36.37;;;;;;;;;;758270;183;920484;-75
2023/02/14 04:01:49;;;;;;;63.30;35.67;;;;;;;;;;761682;179;919317;-75
2023/02/14 04:04:15;;;;;;;60.23;35.43;;;;;;;;;;763422;182;918939;-74
2023/02/14 04:06:41;;;;;;;80.70;37.37;;;;;;;;;;766229;183;919655;-75
2023/02/14 04:09:07;;;;;;;78.40;41.13;;;;;;;;;;759126;181;919596;-75
2023/02/14 04:11:34;;;;;;;66.30;36.50;;;;;;;;;;757751;183;917068;-75
2023/02/14 04:13:59;;;;;;;57.93;35.03;;;;;;;;;;751844;183;919165;-75
2023/02/14 04:16:24;;;;;;;66.20;36.93;;;;;;;;;;758469;183;921197;-75
2023/02/14 04:21:22;;;;;;;73.77;38.10;;;;;;;;;;756650;183;920074;-75
2023/02/14 04:23:48;;;;;;;67.23;37.17;;;;;;;;;;769642;182;1020196;-75
2023/02/14 04:26:14;;;;;;;69.40;37.83;;;;;;;;;;759477;182;1014257;-75
2023/02/14 04:28:39;;;;;;;73.63;38.93;;;;;;;;;;759615;180;1021058;-76
2023/02/14 04:31:05;;;;;;;78.27;40.63;;;;;;;;;;760788;183;905062;-74
2023/02/14 04:33:31;;;;;;;62.40;36.40;;;;;;;;;;767037;183;919163;-75
2023/02/14 04:35:57;;;;;;;61.50;36.63;;;;;;;;;;763351;183;916886;-75
2023/02/14 04:38:23;;;;;;;67.67;36.27;;;;;;;;;;763094;181;640035;-76
2023/02/14 04:40:49;;;;;;;65.20;36.57;;;;;;;;;;767296;183;622512;-76
2023/02/14 04:43:15;;;;;;;60.23;35.47;;;;;;;;;;755782;183;915633;-75
2023/02/14 04:45:40;;;;;;;57.60;30.60;;;;;;;;;;758327;183;903027;-75
2023/02/14 04:48:06;;;;;;;54.53;33.63;;;;;;;;;;759746;183;933974;-75
2023/02/14 04:50:32;;;;;;;60.53;35.07;;;;;;;;;;755482;184;915628;-75
2023/02/14 04:52:58;;;;;;;52.70;33.57;;;;;;;;;;759879;183;623757;-76
2023/02/14 04:55:24;;;;;;;56.17;32.77;;;;;;;;;;766309;183;913890;-74
2023/02/14 04:57:50;;;;;;;53.80;33.57;;;;;;;;;;770257;183;919340;-76
2023/02/14 05:00:16;;;;;;;49.63;31.57;;;;;;;;;;765571;182;628342;-75
2023/02/14 05:02:42;;;;;;;49.30;31.47;;;;;;;;;;758655;183;884623;-75
2023/02/14 05:05:07;;;;;;;50.03;29.50;;;;;;;;;;765633;183;647375;-76
2023/02/14 05:07:33;;;;;;;51.27;32.30;;;;;;;;;;767899;183;624342;-75
2023/02/14 05:09:59;;;;;;;50.70;31.02;;;;;;;;;;762409;183;919005;-75
2023/02/14 05:12:25;;;;;;;46.37;28.50;;;;;;;;;;762855;180;898932;-75
2023/02/14 05:14:51;;;;;;;54.80;32.47;;;;;;;;;;757200;183;847910;-75
2023/02/14 05:17:17;;;;;;;50.50;29.73;;;;;;;;;;752301;183;814777;-76
2023/02/14 05:19:42;;;;;;;54.13;31.57;;;;;;;;;;759546;184;918031;-74
2023/02/14 05:22:08;;;;;;;47.57;29.00;;;;;;;;;;756600;182;919247;-75
2023/02/14 05:24:34;;;;;;;52.40;32.30;;;;;;;;;;757144;182;906407;-75
2023/02/14 05:27:00;;;;;;;51.03;32.27;;;;;;;;;;757913;182;917784;-74
2023/02/14 05:29:26;;;;;;;52.33;30.80;;;;;;;;;;764860;183;803678;-75
2023/02/14 05:31:52;;;;;;;48.60;29.43;;;;;;;;;;760597;183;932022;-75
2023/02/14 05:34:18;;;;;;;50.90;28.30;;;;;;;;;;764782;183;919429;-75
2023/02/14 05:36:44;;;;;;;49.17;29.37;;;;;;;;;;765044;183;625341;-76
2023/02/14 05:39:13;;;;;;;52.83;33.10;;;;;;;;;;759113;183;917241;-75
2023/02/14 05:41:35;;;;;;;56.00;30.10;;;;;;;;;;755035;185;919141;-75
2023/02/14 05:44:01;;;;;;;51.60;31.03;;;;;;;;;;770150;183;817271;-75
2023/02/14 05:46:27;;;;;;;53.60;31.00;;;;;;;;;;759513;183;916565;-76
2023/02/14 05:48:53;;;;;;;56.57;32.93;;;;;;;;;;752163;183;917680;-75
2023/02/14 05:51:19;;;;;;;51.67;31.20;;;;;;;;;;761225;183;915792;-74
2023/02/14 05:53:45;;;;;;;50.73;29.03;;;;;;;;;;762279;183;917117;-75
2023/02/14 05:56:11;;;;;;;47.97;27.57;;;;;;;;;;758529;183;920038;-75
2023/02/14 05:58:37;;;;;;;51.40;29.47;;;;;;;;;;758402;183;922450;-75
2023/02/14 06:01:03;;;;;;;47.27;25.53;;;;;;;;;;760295;183;919112;-74
2023/02/14 06:03:28;;;;;;;47.85;27.33;;;;;;;;;;756758;183;919547;-76
2023/02/14 06:05:54;;;;;;;44.80;23.77;;;;;;;;;;760007;182;936217;-76
2023/02/14 06:08:20;;;;;;;44.90;24.17;;;;;;;;;;766144;182;916437;-75
2023/02/14 06:10:46;;;;;;;55.50;34.50;;;;;;;;;;761643;183;918385;-75
2023/02/14 06:13:12;;;;;;;43.63;25.10;;;;;;;;;;764098;180;907733;-76
2023/02/14 06:15:38;;;;;;;52.80;24.33;;;;;;;;;;760692;183;921777;-74
2023/02/14 06:18:04;;;;;;;48.27;27.17;;;;;;;;;;769270;183;825046;-75
2023/02/14 06:20:30;;;;;;;69.30;34.10;;;;;;;;;;764513;182;814902;-75
2023/02/14 06:22:56;;;;;;;49.90;24.60;;;;;;;;;;769109;182;817951;-75
2023/02/14 06:25:22;;;;;;;43.17;24.42;;;;;;;;;;763680;183;918486;-76
2023/02/14 06:27:47;;;;;;;48.93;25.87;;;;;;;;;;759597;182;816436;-75
2023/02/14 06:30:14;;;;;;;44.37;23.93;;;;;;;;;;763757;183;915852;-76
2023/02/14 06:32:40;;;;;;;43.10;24.07;;;;;;;;;;771026;181;915533;-75
2023/02/14 06:35:06;;;;;;;43.93;20.83;;;;;;;;;;768093;182;818020;-75
2023/02/14 06:37:32;;;;;;;38.97;20.83;;;;;;;;;;766692;179;817182;-75
2023/02/14 06:39:57;;;;;;;39.17;21.60;;;;;;;;;;766991;183;912961;-75
2023/02/14 06:42:23;;;;;;;40.07;22.13;;;;;;;;;;773886;180;1020218;-75
2023/02/14 06:44:49;;;;;;;39.00;22.20;;;;;;;;;;761530;182;920525;-75
2023/02/14 06:47:15;;;;;;;43.70;22.30;;;;;;;;;;756239;183;919196;-75
2023/02/14 06:49:41;;;;;;;40.23;23.67;;;;;;;;;;756724;187;917677;-75
2023/02/14 06:52:07;;;;;;;44.43;23.27;;;;;;;;;;754957;184;919242;-74
2023/02/14 06:54:32;;;;;;;38.60;20.93;;;;;;;;;;759669;183;918173;-75
2023/02/14 06:56:58;;;;;;;42.50;22.80;;;;;;;;;;768052;183;918615;-75
2023/02/14 06:59:24;;;;;;;34.90;21.20;;;;;;;;;;763053;183;1021287;-75
2023/02/14 07:01:50;;;;;;;51.50;30.07;;;;;;;;;;760870;183;919509;-75
2023/02/14 07:04:16;;;;;;;64.07;34.40;;;;;;;;;;760678;183;793227;-75
2023/02/14 07:06:42;;;;;;;64.67;38.73;;;;;;;;;;749564;183;919323;-76
2023/02/14 07:09:08;;;;;;;33.20;21.57;;;;;;;;;;753205;185;919096;-75
2023/02/14 07:11:34;;;;;;;41.73;21.97;;;;;;;;;;754670;184;919301;-74
2023/02/14 07:14:00;;;;;;;19.63;12.10;;;;;;;;;;761408;183;918955;-75
2023/02/14 07:16:25;;;;;;;22.97;12.50;;;;;;;;;;752913;183;915246;-73
2023/02/14 07:18:51;;;;;;;24.27;10.90;;;;;;;;;;758976;183;923946;-73
2023/02/14 07:21:17;;;;;;;21.00;12.40;;;;;;;;;;768699;183;918896;-73
2023/02/14 07:23:46;;;;;;;21.23;13.43;;;;;;;;;;761524;183;881978;-74
2023/02/14 07:26:09;;;;;;;26.80;13.60;;;;;;;;;;761388;183;1019680;-73
2023/02/14 07:28:35;;;;;;;18.20;10.00;;;;;;;;;;760017;183;924321;-74
2023/02/14 07:31:01;;;;;;;24.13;12.33;;;;;;;;;;758427;183;918148;-73
2023/02/14 07:33:26;;;;;;;19.77;9.23;;;;;;;;;;756031;184;816686;-73
2023/02/14 07:35:52;;;;;;;19.80;11.13;;;;;;;;;;762526;183;908756;-73
2023/02/14 07:38:18;;;;;;;12.40;7.80;;;;;;;;;;768348;180;922222;-73
2023/02/14 07:40:44;;;;;;;27.80;15.50;;;;;;;;;;762391;183;918236;-74
2023/02/14 07:43:10;;;;;;;26.87;14.43;;;;;;;;;;758460;180;816823;-74
2023/02/14 07:45:36;;;;;;;26.20;12.70;;;;;;;;;;765653;183;918088;-73
2023/02/14 07:48:01;;;;;;;22.73;11.70;;;;;;;;;;761656;182;920008;-74
2023/02/14 07:50:27;;;;;;;18.10;8.10;;;;;;;;;;753984;183;916020;-73
2023/02/14 07:52:53;;;;;;;19.83;9.00;;;;;;;;;;767307;180;909447;-73
2023/02/14 07:55:19;;;;;;;23.57;14.43;;;;;;;;;;760651;183;919363;-73
2023/02/14 07:57:45;;;;;;;17.30;8.07;;;;;;;;;;762609;180;921285;-74
2023/02/14 08:00:11;;;;;;;15.77;9.73;;;;;;;;;;765953;183;1017816;-73
2023/02/14 08:02:37;;;;;;;18.67;10.20;;;;;;;;;;768773;182;911153;-73
2023/02/14 08:05:03;;;;;;;29.20;11.00;;;;;;;;;;760810;183;926917;-74
2023/02/14 08:07:28;;;;;;;20.67;13.17;;;;;;;;;;758573;183;919135;-73
2023/02/14 08:09:54;;;;;;;16.63;9.00;;;;;;;;;;760334;183;918754;-74
2023/02/14 08:14:52;;;;;;;12.20;6.53;;;;;;;;;;764497;182;1023620;-74
2023/02/14 08:17:18;;;;;;;15.40;9.10;;;;;;;;;;774171;180;922988;-74
2023/02/14 08:19:43;;;;;;;18.50;10.27;;;;;;;;;;758614;183;919204;-74
2023/02/14 08:22:09;;;;;;;26.37;11.97;;;;;;;;;;756992;183;920846;-73
2023/02/14 08:24:35;;;;;;;32.60;13.37;;;;;;;;;;751096;183;941266;-73
2023/02/14 08:27:01;;;;;;;16.37;9.60;;;;;;;;;;758106;183;1020796;-74
2023/02/14 08:29:27;;;;;;;45.33;20.97;;;;;;;;;;762082;183;1021224;-73
2023/02/14 08:31:53;;;;;;;24.03;9.67;;;;;;;;;;763807;183;918512;-73
2023/02/14 08:34:19;;;;;;;12.43;7.17;;;;;;;;;;767422;183;921822;-73
2023/02/14 08:36:46;;;;;;;28.33;13.87;;;;;;;;;;755804;183;920701;-73
2023/02/14 08:39:10;;;;;;;19.10;11.60;;;;;;;;;;760070;183;916241;-73
2023/02/14 08:41:36;;;;;;;22.00;11.23;;;;;;;;;;763650;182;917309;-73
2023/02/14 08:44:02;;;;;;;24.30;7.07;;;;;;;;;;763123;179;1120567;-72
2023/02/14 08:46:28;;;;;;;53.67;23.23;;;;;;;;;;754566;183;914376;-73
2023/02/14 08:48:54;;;;;;;20.93;12.83;;;;;;;;;;758190;180;916554;-73
2023/02/14 08:51:21;;;;;;;17.50;9.17;;;;;;;;;;758622;183;910100;-73
2023/02/14 08:53:45;;;;;;;21.67;12.90;;;;;;;;;;765355;182;918834;-73
2023/02/14 08:56:11;;;;;;;25.43;12.77;;;;;;;;;;777199;180;918864;-73
2023/02/14 08:58:37;;;;;;;19.47;10.83;;;;;;;;;;765224;182;910874;-74
2023/02/14 09:01:07;;;;;;;11.60;5.90;;;;;;;;;;762817;182;919278;-74
2023/02/14 09:03:33;;;;;;;26.23;15.00;;;;;;;;;;758201;183;923204;-73
2023/02/14 09:06:03;;;;;;;24.47;11.47;;;;;;;;;;769255;182;918803;-73
2023/02/14 09:08:30;;;;;;;18.57;9.33;;;;;;;;;;765337;182;919378;-73
2023/02/14 09:10:54;;;;;;;18.50;13.37;;;;;;;;;;763149;183;918088;-74
2023/02/14 09:13:20;;;;;;;13.17;8.17;;;;;;;;;;759730;179;917808;-72
2023/02/14 09:15:46;;;;;;;23.77;14.07;;;;;;;;;;763097;182;818553;-73
2023/02/14 09:18:12;;;;;;;20.90;11.60;;;;;;;;;;762764;180;816616;-74
2023/02/14 09:20:38;;;;;;;13.40;7.10;;;;;;;;;;760750;183;815040;-73
2023/02/14 09:23:03;;;;;;;16.00;10.07;;;;;;;;;;762278;183;923463;-72
2023/02/14 09:25:29;;;;;;;24.30;13.07;;;;;;;;;;755793;183;917096;-74
2023/02/14 09:27:55;;;;;;;22.83;13.88;;;;;;;;;;754768;183;1058240;-74
2023/02/14 09:30:21;;;;;;;25.33;10.93;;;;;;;;;;763703;183;919341;-72
2023/02/14 09:32:47;;;;;;;21.23;13.30;;;;;;;;;;767228;182;919026;-73
2023/02/14 09:35:13;;;;;;;20.63;10.63;;;;;;;;;;757244;183;919486;-73
2023/02/14 09:37:39;;;;;;;24.45;13.57;;;;;;;;;;752661;183;918778;-72
2023/02/14 09:40:05;;;;;;;24.20;14.43;;;;;;;;;;767026;183;879822;-74
2023/02/14 09:42:47;;;;;;;19.50;12.43;;;;;;;;;;761931;179;922631;-73
2023/02/14 09:45:13;;;;;;;27.33;14.07;;;;;;;;;;762893;182;1021850;-74
2023/02/14 09:47:39;;;;;;;16.80;9.60;;;;;;;;;;752889;183;925745;-73
2023/02/14 09:50:07;;;;;;;17.47;11.33;;;;;;;;;;760359;183;919266;-74
2023/02/14 09:52:32;;;;;;;23.50;12.00;;;;;;;;;;757326;183;921381;-74
2023/02/14 09:54:59;;;;;;;20.30;12.50;;;;;;;;;;755573;183;1022220;-74
2023/02/14 09:57:24;;;;;;;18.87;12.17;;;;;;;;;;761034;181;919307;-73
2023/02/14 09:59:51;;;;;;;22.70;11.07;;;;;;;;;;764431;183;918811;-75
2023/02/14 10:02:18;;;;;;;16.43;10.00;;;;;;;;;;762477;183;918101;-74
2023/02/14 10:05:01;;;;;;;17.83;11.03;;;;;;;;;;755335;183;919132;-73
2023/02/14 10:07:28;;;;;;;19.00;12.07;;;;;;;;;;765738;181;919470;-74
2023/02/14 10:09:58;;;;;;;13.67;9.27;;;;;;;;;;763310;183;919604;-73
2023/02/14 10:12:24;;;;;;;24.80;10.10;;;;;;;;;;766217;182;919115;-73
2023/02/14 10:14:50;;;;;;;15.63;10.83;;;;;;;;;;764167;182;818368;-73
2023/02/14 10:17:16;;;;;;;13.80;8.27;;;;;;;;;;756919;183;1019971;-73
2023/02/14 10:19:44;;;;;;;21.77;11.53;;;;;;;;;;769227;183;816099;-73
2023/02/14 10:22:10;;;;;;;18.40;11.93;;;;;;;;;;755373;183;927314;-73
2023/02/14 10:24:36;;;;;;;16.47;12.27;;;;;;;;;;760130;183;1024914;-74
2023/02/14 10:27:03;;;;;;;15.50;10.30;;;;;;;;;;760927;180;817268;-74
2023/02/14 10:29:29;;;;;;;17.60;10.97;;;;;;;;;;758306;182;810851;-73
2023/02/14 10:31:57;;;;;;;15.80;9.60;;;;;;;;;;759160;183;818740;-73
2023/02/14 10:34:25;;;;;;;16.30;10.33;;;;;;;;;;759921;183;923485;-73
2023/02/14 10:36:51;;;;;;;16.17;10.20;;;;;;;;;;761450;183;812429;-75
2023/02/14 10:39:34;;;;;;;12.63;7.53;;;;;;;;;;756271;183;913213;-73
2023/02/14 10:42:15;;;;;;;12.33;6.97;;;;;;;;;;756025;182;812662;-75
2023/02/14 10:44:56;;;;;;;15.27;9.23;;;;;;;;;;756850;182;813341;-74
2023/02/14 10:47:25;;;;;;;12.73;9.20;;;;;;;;;;755790;182;919693;-74
2023/02/14 10:49:57;;;;;;;14.63;9.40;;;;;;;;;;754497;183;917416;-73
2023/02/14 10:52:23;;;;;;;11.03;8.73;;;;;;;;;;760773;183;923033;-73
2023/02/14 10:54:50;;;;;;;13.60;8.40;;;;;;;;;;768406;182;905082;-74
2023/02/14 10:57:18;;;;;;;14.93;9.65;;;;;;;;;;762760;182;1023811;-74
2023/02/14 10:59:50;;;;;;;14.70;8.20;;;;;;;;;;761236;183;915262;-74
2023/02/14 11:02:16;;;;;;;15.20;9.23;;;;;;;;;;763456;183;920562;-76
2023/02/14 11:04:42;;;;;;;13.97;9.90;;;;;;;;;;754026;183;817061;-74
2023/02/14 11:07:10;;;;;;;10.30;6.40;;;;;;;;;;755918;183;898353;-75
2023/02/14 11:09:36;;;;;;;9.50;7.50;;;;;;;;;;753324;183;896442;-74
2023/02/14 11:12:02;;;;;;;18.70;7.70;;;;;;;;;;761581;183;922829;-74
2023/02/14 11:14:28;;;;;;;9.17;7.00;;;;;;;;;;758291;183;917039;-74
2023/02/14 11:16:54;;;;;;;9.67;6.03;;;;;;;;;;756034;183;921677;-74
2023/02/14 11:19:28;;;;;;;12.90;7.03;;;;;;;;;;769253;181;680857;-74
2023/02/14 11:21:54;;;;;;;26.93;17.60;;;;;;;;;;772297;182;919137;-74
2023/02/14 11:24:34;;;;;;;10.70;5.80;;;;;;;;;;764676;182;918779;-75
2023/02/14 11:27:01;;;;;;;8.57;6.07;;;;;;;;;;755918;183;917741;-74
2023/02/14 11:29:27;;;;;;;9.93;6.10;;;;;;;;;;758045;183;921180;-73
2023/02/14 11:31:53;;;;;;;12.53;6.73;;;;;;;;;;770299;180;918970;-74
2023/02/14 11:34:24;;;;;;;12.23;7.07;;;;;;;;;;758889;183;918024;-74
2023/02/14 11:36:50;;;;;;;8.93;5.37;;;;;;;;;;760506;180;917734;-74
2023/02/14 11:39:20;;;;;;;29.60;13.77;;;;;;;;;;758982;183;918283;-73
2023/02/14 11:41:55;;;;;;;18.90;8.97;;;;;;;;;;766636;183;919125;-74
2023/02/14 11:44:22;;;;;;;6.63;4.17;;;;;;;;;;764736;182;916819;-74
2023/02/14 11:46:49;;;;;;;7.67;4.60;;;;;;;;;;772578;182;918853;-74
2023/02/14 11:49:22;;;;;;;11.77;6.18;;;;;;;;;;766352;182;919086;-73
2023/02/14 11:51:47;;;;;;;9.07;5.43;;;;;;;;;;756984;180;916251;-73
2023/02/14 11:54:13;;;;;;;7.07;3.93;;;;;;;;;;751688;183;918489;-74
2023/02/14 11:56:43;;;;;;;9.60;5.33;;;;;;;;;;749873;184;920218;-73
2023/02/14 11:59:09;;;;;;;9.57;5.22;;;;;;;;;;753484;184;921715;-73
2023/02/14 12:01:35;;;;;;;8.63;4.70;;;;;;;;;;763507;183;918857;-74
2023/02/14 12:04:02;;;;;;;8.17;5.17;;;;;;;;;;753631;183;919348;-74
2023/02/14 12:06:28;;;;;;;6.30;3.43;;;;;;;;;;752302;183;1021886;-73
2023/02/14 12:09:09;;;;;;;5.37;3.60;;;;;;;;;;761993;182;918616;-73
2023/02/14 12:11:35;;;;;;;6.77;3.30;;;;;;;;;;768697;182;919470;-74
2023/02/14 12:14:01;;;;;;;11.00;7.33;;;;;;;;;;767663;182;881582;-74
2023/02/14 12:16:30;;;;;;;9.70;5.80;;;;;;;;;;762290;182;921117;-74
2023/02/14 12:18:58;;;;;;;7.07;4.73;;;;;;;;;;753794;183;915934;-73
2023/02/14 12:21:24;;;;;;;7.50;4.07;;;;;;;;;;762318;183;918398;-75
2023/02/14 12:24:05;;;;;;;7.77;4.60;;;;;;;;;;750519;184;934364;-74
2023/02/14 12:26:34;;;;;;;6.80;4.47;;;;;;;;;;759890;183;918347;-74
2023/02/14 12:29:07;;;;;;;8.70;5.20;;;;;;;;;;763150;182;851327;-73
2023/02/14 12:31:32;;;;;;;8.90;5.97;;;;;;;;;;754300;181;920493;-74
2023/02/14 12:33:58;;;;;;;7.63;4.93;;;;;;;;;;764952;182;812865;-75
2023/02/14 12:36:29;;;;;;;9.73;5.77;;;;;;;;;;765382;182;815730;-74
2023/02/14 12:38:55;;;;;;;8.33;4.93;;;;;;;;;;761143;182;917970;-74
2023/02/14 12:41:23;;;;;;;8.40;4.90;;;;;;;;;;762738;183;918580;-73
2023/02/14 12:43:49;;;;;;;7.67;5.10;;;;;;;;;;753975;183;815535;-74
2023/02/14 12:46:15;;;;;;;7.27;4.87;;;;;;;;;;766755;183;818329;-74
2023/02/14 12:48:56;;;;;;;7.70;4.67;;;;;;;;;;763550;183;820443;-74
2023/02/14 12:51:24;;;;;;;9.87;6.13;;;;;;;;;;762614;182;881948;-73
2023/02/14 12:53:52;;;;;;;17.50;4.97;;;;;;;;;;762547;183;695824;-73
2023/02/14 12:56:22;;;;;;;8.37;4.37;;;;;;;;;;760955;183;816488;-73
2023/02/14 12:59:04;;;;;;;19.33;5.17;;;;;;;;;;755611;183;928039;-73
2023/02/14 13:01:46;;;;;;;15.35;8.27;;;;;;;;;;758611;182;859754;-73
2023/02/14 13:04:19;;;;;;;8.53;5.47;;;;;;;;;;758173;182;919642;-74
2023/02/14 13:06:44;;;;;;;10.40;5.00;;;;;;;;;;754844;183;918648;-73
2023/02/14 13:09:20;;;;;;;6.90;3.53;;;;;;;;;;764978;183;923805;-73
2023/02/14 13:11:52;;;;;;;7.03;4.77;;;;;;;;;;764885;183;922054;-74
2023/02/14 13:14:18;;;;;;;20.10;11.00;;;;;;;;;;764624;183;817289;-74
2023/02/14 13:16:46;;;;;;;8.43;5.00;;;;;;;;;;758776;183;910923;-73
2023/02/14 13:19:13;;;;;;;8.00;5.87;;;;;;;;;;759585;183;917570;-73
2023/02/14 13:21:39;;;;;;;9.90;4.85;;;;;;;;;;757965;183;916016;-74
2023/02/14 13:24:05;;;;;;;15.63;6.07;;;;;;;;;;759363;180;812369;-73
2023/02/14 13:26:31;;;;;;;16.70;5.43;;;;;;;;;;758126;183;814864;-73
2023/02/14 13:28:58;;;;;;;11.07;6.80;;;;;;;;;;764973;183;816551;-73
2023/02/14 13:31:24;;;;;;;8.67;6.23;;;;;;;;;;763456;183;811785;-73
2023/02/14 13:33:51;;;;;;;9.30;5.90;;;;;;;;;;764828;183;919310;-73
2023/02/14 13:36:16;;;;;;;10.63;6.37;;;;;;;;;;760394;183;816520;-74
2023/02/14 13:38:47;;;;;;;11.13;5.90;;;;;;;;;;764420;179;880547;-74
2023/02/14 13:41:13;;;;;;;9.47;5.17;;;;;;;;;;755947;182;832567;-74
2023/02/14 13:43:47;;;;;;;9.23;6.43;;;;;;;;;;766040;179;918542;-72
2023/02/14 13:46:15;;;;;;;14.33;5.97;;;;;;;;;;768420;183;817426;-73
2023/02/14 13:48:41;;;;;;;23.13;10.13;;;;;;;;;;765618;182;825641;-73
2023/02/14 13:51:07;;;;;;;8.87;6.17;;;;;;;;;;755653;183;906188;-73
2023/02/14 13:53:38;;;;;;;54.55;30.45;;;;;;;;;;758280;182;887746;-72
2023/02/14 13:56:19;;;;;;;51.40;27.70;;;;;;;;;;761534;183;1022653;-73
2023/02/14 13:58:47;;;;;;;45.93;24.13;;;;;;;;;;767623;182;913634;-73
2023/02/14 14:01:18;;;;;;;12.90;8.67;;;;;;;;;;765363;183;925734;-74
2023/02/14 14:03:52;;;;;;;12.13;9.32;;;;;;;;;;772283;173;1014016;-69
2023/02/14 14:06:18;;;;;;;19.40;15.38;;;;;;;;;;769116;179;1189781;-69
2023/02/14 14:08:44;;;;;;;33.87;19.23;;;;;;;;;;773742;180;926780;-69
2023/02/14 14:11:10;;;;;;;17.53;13.40;;;;;;;;;;771002;180;932064;-68
2023/02/14 14:13:55;;;;;;;21.80;15.63;;;;;;;;;;766820;181;919717;-71
2023/02/14 14:16:32;;;;;;;69.93;31.80;;;;;;;;;;770755;180;1126148;-70
2023/02/14 14:19:00;;;;;;;103.22;56.33;;;;;;;;;;767246;181;1015727;-70
2023/02/14 14:21:26;;;;;;;234.57;108.87;;;;;;;;;;769878;181;915975;-70
2023/02/14 14:24:08;;;;;;;48.17;27.03;;;;;;;;;;766785;180;920482;-69
2023/02/14 14:26:34;;;;;;;57.17;36.23;;;;;;;;;;762473;180;918990;-70
2023/02/14 14:29:00;;;;;;;23.55;10.45;;;;;;;;;;767995;181;919784;-70